createdAt,value
2022-11-06T00:00:46.459Z,9.40
2022-11-06T00:03:13.527Z,9.40
2022-11-06T00:06:00.230Z,9.40
2022-11-06T00:08:38.466Z,9.40
2022-11-06T00:11:12.760Z,9.40
2022-11-06T00:13:40.753Z,9.40
2022-11-06T00:16:16.429Z,9.40
2022-11-06T00:18:43.306Z,9.40
2022-11-06T00:21:14.796Z,9.40
2022-11-06T00:23:42.076Z,9.40
2022-11-06T00:26:10.078Z,9.40
2022-11-06T00:28:37.401Z,9.40
2022-11-06T00:31:08.641Z,9.40
2022-11-06T00:33:35.941Z,9.40
2022-11-06T00:36:04.210Z,9.40
2022-11-06T00:38:31.813Z,9.40
2022-11-06T00:41:02.344Z,9.40
2022-11-06T00:43:29.371Z,9.40
2022-11-06T00:46:01.048Z,9.40
2022-11-06T00:48:28.081Z,9.40
2022-11-06T00:50:55.801Z,9.40
2022-11-06T00:53:23.017Z,9.40
2022-11-06T00:55:49.888Z,9.40
2022-11-06T00:58:16.801Z,9.40
2022-11-06T01:00:45.575Z,9.40
2022-11-06T01:03:12.507Z,9.40
2022-11-06T01:05:39.924Z,9.40
2022-11-06T01:08:07.142Z,9.40
2022-11-06T01:10:34.241Z,9.40
2022-11-06T01:13:01.365Z,9.40
2022-11-06T01:15:28.121Z,9.40
2022-11-06T01:17:54.903Z,9.40
2022-11-06T01:20:21.675Z,9.40
2022-11-06T01:22:48.636Z,9.30
2022-11-06T01:25:16.045Z,9.40
2022-11-06T01:27:43.528Z,9.40
2022-11-06T01:30:10.876Z,9.40
2022-11-06T01:32:37.928Z,9.40
2022-11-06T01:35:04.885Z,9.40
2022-11-06T01:37:31.647Z,9.40
2022-11-06T01:39:58.386Z,9.40
2022-11-06T01:42:27.963Z,9.40
2022-11-06T01:45:00.938Z,9.30
2022-11-06T01:47:28.797Z,9.30
2022-11-06T01:49:58.443Z,9.40
2022-11-06T01:52:26.694Z,9.40
2022-11-06T01:54:55.205Z,9.30
2022-11-06T01:57:22.289Z,9.30
2022-11-06T01:59:50.791Z,9.20
2022-11-06T02:02:17.835Z,9.20
2022-11-06T02:04:46.262Z,9.20
2022-11-06T02:07:13.213Z,9.20
2022-11-06T02:09:40.166Z,9.20
2022-11-06T02:12:22.432Z,9.10
2022-11-06T02:15:08.169Z,9.10
2022-11-06T02:17:46.964Z,9.10
2022-11-06T02:20:13.954Z,9.10
2022-11-06T02:22:52.909Z,9.10
2022-11-06T02:25:37.598Z,9.20
2022-11-06T02:28:09.412Z,9.10
2022-11-06T02:30:39.837Z,9.10
2022-11-06T02:33:09.171Z,9.10
2022-11-06T02:35:36.008Z,9.10
2022-11-06T02:38:35.314Z,9.10
2022-11-06T02:41:05.159Z,9.00
2022-11-06T02:43:44.076Z,9.00
2022-11-06T02:46:37.140Z,8.90
2022-11-06T02:49:08.385Z,8.80
2022-11-06T02:51:39.124Z,8.80
2022-11-06T02:54:07.317Z,8.90
2022-11-06T02:56:37.495Z,8.90
2022-11-06T02:59:17.302Z,8.90
2022-11-06T03:01:57.089Z,9.00
2022-11-06T03:04:46.740Z,9.00
2022-11-06T03:07:16.818Z,9.00
2022-11-06T03:09:45.054Z,9.00
2022-11-06T03:12:12.662Z,8.90
2022-11-06T03:14:46.430Z,8.90
2022-11-06T03:17:19.179Z,8.90
2022-11-06T03:20:09.510Z,8.90
2022-11-06T03:22:41.233Z,8.90
2022-11-06T03:25:26.024Z,8.90
2022-11-06T03:27:55.647Z,8.90
2022-11-06T03:30:22.472Z,8.90
2022-11-06T03:33:13.302Z,8.80
2022-11-06T03:35:45.695Z,8.80
2022-11-06T03:38:38.242Z,8.80
2022-11-06T03:41:30.804Z,8.80
2022-11-06T03:44:00.225Z,8.80
2022-11-06T03:46:29.754Z,8.70
2022-11-06T03:49:00.243Z,8.70
2022-11-06T03:51:31.820Z,8.80
2022-11-06T03:54:15.817Z,8.70
2022-11-06T03:57:02.003Z,8.70
2022-11-06T03:59:32.161Z,8.70
2022-11-06T04:02:00.933Z,8.80
2022-11-06T04:04:35.423Z,8.80
2022-11-06T04:07:08.152Z,8.80
2022-11-06T04:09:56.129Z,8.80
2022-11-06T04:12:43.686Z,8.80
2022-11-06T04:15:12.839Z,8.80
2022-11-06T04:17:40.857Z,8.70
2022-11-06T04:20:09.843Z,8.70
2022-11-06T04:22:55.632Z,8.70
2022-11-06T04:26:06.432Z,8.70
2022-11-06T04:28:39.898Z,8.70
2022-11-06T04:31:19.813Z,8.70
2022-11-06T04:33:47.192Z,8.70
2022-11-06T04:36:15.120Z,8.70
2022-11-06T04:38:44.975Z,8.70
2022-11-06T04:41:34.684Z,8.70
2022-11-06T04:44:11.656Z,8.70
2022-11-06T04:46:47.221Z,8.70
2022-11-06T04:49:14.412Z,8.70
2022-11-06T04:51:43.274Z,8.80
2022-11-06T04:54:10.903Z,8.80
2022-11-06T04:56:44.535Z,8.90
2022-11-06T04:59:15.053Z,8.90
2022-11-06T05:01:41.987Z,8.80
2022-11-06T05:04:09.300Z,8.80
2022-11-06T05:06:36.189Z,8.80
2022-11-06T05:09:03.575Z,8.80
2022-11-06T05:11:30.378Z,8.80
2022-11-06T05:13:57.200Z,8.80
2022-11-06T05:16:24.158Z,8.80
2022-11-06T05:18:51.033Z,8.80
2022-11-06T05:21:36.631Z,8.90
2022-11-06T05:24:06.397Z,8.90
2022-11-06T05:26:33.471Z,8.90
2022-11-06T05:29:00.278Z,8.80
2022-11-06T05:31:27.998Z,8.80
2022-11-06T05:33:54.814Z,8.80
2022-11-06T05:36:22.451Z,8.70
2022-11-06T05:38:49.297Z,8.70
2022-11-06T05:41:16.174Z,8.70
2022-11-06T05:43:43.539Z,8.70
2022-11-06T05:46:29.639Z,8.70
2022-11-06T05:48:57.149Z,8.70
2022-11-06T05:51:23.950Z,8.70
2022-11-06T05:53:51.921Z,8.70
2022-11-06T05:56:18.833Z,8.70
2022-11-06T05:58:45.641Z,8.70
2022-11-06T06:01:12.482Z,8.60
2022-11-06T06:03:39.407Z,8.70
2022-11-06T06:06:06.407Z,8.60
2022-11-06T06:08:33.399Z,8.60
2022-11-06T06:11:00.369Z,8.60
2022-11-06T06:13:27.146Z,8.60
2022-11-06T06:15:53.943Z,8.50
2022-11-06T06:18:20.834Z,8.50
2022-11-06T06:20:47.727Z,8.50
2022-11-06T06:23:14.506Z,8.50
2022-11-06T06:25:41.439Z,8.50
2022-11-06T06:28:08.324Z,8.60
2022-11-06T06:30:35.955Z,8.60
2022-11-06T06:33:06.442Z,8.60
2022-11-06T06:35:33.706Z,8.60
2022-11-06T06:38:01.423Z,8.70
2022-11-06T06:40:29.819Z,8.70
2022-11-06T06:42:57.494Z,8.70
2022-11-06T06:45:24.898Z,8.70
2022-11-06T06:47:51.714Z,8.80
2022-11-06T06:50:18.515Z,8.80
2022-11-06T06:52:45.329Z,8.80
2022-11-06T06:55:12.155Z,8.80
2022-11-06T06:57:38.894Z,8.90
2022-11-06T07:00:06.629Z,8.90
2022-11-06T07:02:33.466Z,9.00
2022-11-06T07:05:00.376Z,9.10
2022-11-06T07:07:27.775Z,9.20
2022-11-06T07:09:54.645Z,9.30
2022-11-06T07:12:22.541Z,9.50
2022-11-06T07:14:49.571Z,9.60
2022-11-06T07:17:17.102Z,9.70
2022-11-06T07:19:43.923Z,9.80
2022-11-06T07:22:11.172Z,9.80
2022-11-06T07:24:38.061Z,9.80
2022-11-06T07:27:04.929Z,9.80
2022-11-06T07:29:31.695Z,9.80
2022-11-06T07:31:58.912Z,9.80
2022-11-06T07:34:25.732Z,10.00
2022-11-06T07:36:52.624Z,10.20
2022-11-06T07:39:19.541Z,10.50
2022-11-06T07:41:46.559Z,10.80
2022-11-06T07:44:13.359Z,11.20
2022-11-06T07:46:40.255Z,11.50
2022-11-06T07:49:07.333Z,11.70
2022-11-06T07:51:34.152Z,11.90
2022-11-06T07:54:00.902Z,12.00
2022-11-06T07:56:27.728Z,12.20
2022-11-06T07:58:54.602Z,12.40
2022-11-06T08:01:22.735Z,12.70
2022-11-06T08:03:49.713Z,12.70
2022-11-06T08:06:16.622Z,12.80
2022-11-06T08:08:43.528Z,13.10
2022-11-06T08:11:10.969Z,13.30
2022-11-06T08:13:38.726Z,13.30
2022-11-06T08:16:10.449Z,13.40
2022-11-06T08:18:37.310Z,13.30
2022-11-06T08:21:05.049Z,13.40
2022-11-06T08:23:31.917Z,13.30
2022-11-06T08:26:00.251Z,13.30
2022-11-06T08:28:27.695Z,13.10
2022-11-06T08:30:55.195Z,13.10
2022-11-06T08:33:22.606Z,13.10
2022-11-06T08:35:49.463Z,13.20
2022-11-06T08:38:17.004Z,13.50
2022-11-06T08:40:48.189Z,13.80
2022-11-06T08:43:17.723Z,14.10
2022-11-06T08:45:45.066Z,14.00
2022-11-06T08:48:13.872Z,13.80
2022-11-06T08:50:41.440Z,13.80
2022-11-06T08:53:08.343Z,13.90
2022-11-06T08:55:36.666Z,14.20
2022-11-06T08:58:03.990Z,14.20
2022-11-06T09:00:30.873Z,14.20
2022-11-06T09:03:01.844Z,14.40
2022-11-06T09:05:29.860Z,14.30
2022-11-06T09:07:57.101Z,14.30
2022-11-06T09:10:24.865Z,14.30
2022-11-06T09:12:51.730Z,14.10
2022-11-06T09:15:20.276Z,14.20
2022-11-06T09:17:48.011Z,14.30
2022-11-06T09:20:15.228Z,14.40
2022-11-06T09:22:42.381Z,14.40
2022-11-06T09:25:09.880Z,14.30
2022-11-06T09:27:44.031Z,14.40
2022-11-06T09:30:12.181Z,14.50
2022-11-06T09:32:39.525Z,14.30
2022-11-06T09:35:06.423Z,14.20
2022-11-06T09:37:33.167Z,14.30
2022-11-06T09:40:05.703Z,14.50
2022-11-06T09:42:33.156Z,14.30
2022-11-06T09:45:16.111Z,14.10
2022-11-06T09:47:48.552Z,14.20
2022-11-06T09:50:18.116Z,14.40
2022-11-06T09:52:49.263Z,14.60
2022-11-06T09:55:19.383Z,14.30
2022-11-06T09:57:49.512Z,14.30
2022-11-06T10:00:17.390Z,14.30
2022-11-06T10:02:49.337Z,14.30
2022-11-06T10:05:16.546Z,14.40
2022-11-06T10:07:44.067Z,14.60
2022-11-06T10:10:23.754Z,14.40
2022-11-06T10:12:57.515Z,14.50
2022-11-06T10:15:26.416Z,14.60
2022-11-06T10:17:59.325Z,14.50
2022-11-06T10:20:29.735Z,14.40
2022-11-06T10:22:59.894Z,14.40
2022-11-06T10:25:40.249Z,14.30
2022-11-06T10:28:16.654Z,14.20
2022-11-06T10:30:49.397Z,14.50
2022-11-06T10:33:28.294Z,14.60
2022-11-06T10:36:00.745Z,14.80
2022-11-06T10:38:29.223Z,14.80
2022-11-06T10:40:56.432Z,14.50
2022-11-06T10:43:46.006Z,14.50
2022-11-06T10:46:18.671Z,14.40
2022-11-06T10:48:51.368Z,14.50
2022-11-06T10:51:28.789Z,14.50
2022-11-06T10:54:14.722Z,14.40
2022-11-06T10:56:50.715Z,14.00
2022-11-06T10:59:17.845Z,13.70
2022-11-06T11:01:44.837Z,13.70
2022-11-06T11:04:11.710Z,13.90
2022-11-06T11:06:39.103Z,14.00
2022-11-06T11:09:25.797Z,14.00
2022-11-06T11:11:52.522Z,13.90
2022-11-06T11:14:23.714Z,13.70
2022-11-06T11:16:50.556Z,13.50
2022-11-06T11:19:26.686Z,13.80
2022-11-06T11:21:53.532Z,14.10
2022-11-06T11:24:20.260Z,14.50
2022-11-06T11:26:47.907Z,14.60
2022-11-06T11:29:31.914Z,14.60
2022-11-06T11:32:02.791Z,14.50
2022-11-06T11:34:30.949Z,14.50
2022-11-06T11:36:58.590Z,14.40
2022-11-06T11:39:44.554Z,14.40
2022-11-06T11:42:30.642Z,14.50
2022-11-06T11:45:09.793Z,14.60
2022-11-06T11:47:44.256Z,14.50
2022-11-06T11:50:22.546Z,14.40
2022-11-06T11:52:51.312Z,14.50
2022-11-06T11:55:19.496Z,14.50
2022-11-06T11:57:48.524Z,14.50
2022-11-06T12:00:17.365Z,14.40
2022-11-06T12:02:47.066Z,14.40
2022-11-06T12:05:18.531Z,14.20
2022-11-06T12:07:48.765Z,14.00
2022-11-06T12:10:25.574Z,13.90
2022-11-06T12:12:53.111Z,13.80
2022-11-06T12:15:21.266Z,13.60
2022-11-06T12:18:01.118Z,13.50
2022-11-06T12:20:40.235Z,13.60
2022-11-06T12:23:12.464Z,13.50
2022-11-06T12:25:41.808Z,13.40
2022-11-06T12:28:14.223Z,13.40
2022-11-06T12:30:42.946Z,13.30
2022-11-06T12:33:27.420Z,13.30
2022-11-06T12:36:14.532Z,13.60
2022-11-06T12:38:44.651Z,13.60
2022-11-06T12:41:23.814Z,13.80
2022-11-06T12:43:51.366Z,13.80
2022-11-06T12:46:27.592Z,13.80
2022-11-06T12:49:00.678Z,13.70
2022-11-06T12:51:27.319Z,13.40
2022-11-06T12:54:13.186Z,13.20
2022-11-06T12:56:48.906Z,13.00
2022-11-06T12:59:18.635Z,12.90
2022-11-06T13:01:54.539Z,12.80
2022-11-06T13:04:33.431Z,12.80
2022-11-06T13:07:03.191Z,12.80
2022-11-06T13:09:33.062Z,12.70
2022-11-06T13:12:12.672Z,12.70
2022-11-06T13:14:40.230Z,12.60
2022-11-06T13:17:22.462Z,12.50
2022-11-06T13:19:49.651Z,12.50
2022-11-06T13:22:23.427Z,12.50
2022-11-06T13:25:05.658Z,12.50
2022-11-06T13:27:44.626Z,12.40
2022-11-06T13:30:19.636Z,12.40
2022-11-06T13:32:53.808Z,12.40
2022-11-06T13:35:21.510Z,12.40
2022-11-06T13:37:49.800Z,12.40
2022-11-06T13:40:36.236Z,12.40
2022-11-06T13:43:06.176Z,12.40
2022-11-06T13:45:52.045Z,12.30
2022-11-06T13:48:38.047Z,12.30
2022-11-06T13:51:25.871Z,12.30
2022-11-06T13:54:00.051Z,12.20
2022-11-06T13:56:43.744Z,12.20
2022-11-06T13:59:34.217Z,12.10
2022-11-06T14:02:19.814Z,12.20
2022-11-06T14:05:05.321Z,12.10
2022-11-06T14:07:32.911Z,12.10
2022-11-06T14:09:59.760Z,12.00
2022-11-06T14:12:27.381Z,11.90
2022-11-06T14:15:04.220Z,11.90
2022-11-06T14:17:30.974Z,11.90
2022-11-06T14:20:02.479Z,11.80
2022-11-06T14:22:34.146Z,11.80
2022-11-06T14:25:02.239Z,11.70
2022-11-06T14:27:29.340Z,11.70
2022-11-06T14:29:59.123Z,11.70
2022-11-06T14:32:31.983Z,11.60
2022-11-06T14:35:39.231Z,11.60
2022-11-06T14:38:21.650Z,11.60
2022-11-06T14:40:49.480Z,11.60
2022-11-06T14:43:19.388Z,11.60
2022-11-06T14:45:54.409Z,11.50
2022-11-06T14:48:41.628Z,11.50
2022-11-06T14:51:11.675Z,11.50
2022-11-06T14:53:40.462Z,11.60
2022-11-06T14:56:12.737Z,11.60
2022-11-06T14:58:41.613Z,11.60
2022-11-06T15:01:08.482Z,11.60
2022-11-06T15:03:35.428Z,11.60
2022-11-06T15:06:22.419Z,11.60
2022-11-06T15:08:52.351Z,11.60
2022-11-06T15:11:34.999Z,11.50
2022-11-06T15:14:08.908Z,11.50
2022-11-06T15:16:49.977Z,11.50
2022-11-06T15:19:19.864Z,11.50
2022-11-06T15:22:03.487Z,11.50
2022-11-06T15:24:35.901Z,11.40
2022-11-06T15:27:12.062Z,11.40
2022-11-06T15:29:43.073Z,11.40
2022-11-06T15:32:18.597Z,11.40
2022-11-06T15:34:50.540Z,11.40
2022-11-06T15:37:18.802Z,11.40
2022-11-06T15:39:49.391Z,11.30
2022-11-06T15:42:18.326Z,11.30
2022-11-06T15:44:46.380Z,11.30
2022-11-06T15:47:21.110Z,11.30
2022-11-06T15:49:48.161Z,11.30
2022-11-06T15:52:18.484Z,11.40
2022-11-06T15:54:48.590Z,11.40
2022-11-06T15:57:24.413Z,11.40
2022-11-06T16:00:00.509Z,11.40
2022-11-06T16:02:27.470Z,11.40
2022-11-06T16:04:54.320Z,11.40
2022-11-06T16:07:21.916Z,11.40
2022-11-06T16:09:49.793Z,11.40
2022-11-06T16:12:18.157Z,11.40
2022-11-06T16:14:45.434Z,11.40
2022-11-06T16:17:16.935Z,11.30
2022-11-06T16:19:45.422Z,11.30
2022-11-06T16:22:27.555Z,11.30
2022-11-06T16:25:20.707Z,11.30
2022-11-06T16:27:47.624Z,11.20
2022-11-06T16:30:25.408Z,11.20
2022-11-06T16:32:52.731Z,11.20
2022-11-06T16:35:37.719Z,11.20
2022-11-06T16:38:40.435Z,11.20
2022-11-06T16:41:08.858Z,11.20
2022-11-06T16:43:35.811Z,11.20
2022-11-06T16:46:07.895Z,11.20
2022-11-06T16:48:36.052Z,11.20
2022-11-06T16:51:04.469Z,11.10
2022-11-06T16:53:32.669Z,11.20
2022-11-06T16:56:01.693Z,11.10
2022-11-06T16:58:30.775Z,11.20
2022-11-06T17:00:59.787Z,11.20
2022-11-06T17:03:28.455Z,11.20
2022-11-06T17:05:56.824Z,11.20
2022-11-06T17:08:23.697Z,11.20
2022-11-06T17:10:50.790Z,11.10
2022-11-06T17:13:17.767Z,11.10
2022-11-06T17:15:46.454Z,11.10
2022-11-06T17:18:24.029Z,11.10
2022-11-06T17:20:53.015Z,11.10
2022-11-06T17:23:20.523Z,11.00
2022-11-06T17:25:48.038Z,11.10
2022-11-06T17:28:14.985Z,11.10
2022-11-06T17:30:41.971Z,11.10
2022-11-06T17:33:09.209Z,11.10
2022-11-06T17:35:36.300Z,11.10
2022-11-06T17:38:07.423Z,11.10
2022-11-06T17:40:34.808Z,11.10
2022-11-06T17:43:01.984Z,11.10
2022-11-06T17:45:28.854Z,11.10
2022-11-06T17:47:55.686Z,11.10
2022-11-06T17:50:22.633Z,11.00
2022-11-06T17:52:49.551Z,11.00
2022-11-06T17:55:16.932Z,11.10
2022-11-06T17:57:44.221Z,11.00
2022-11-06T18:00:11.858Z,11.00
2022-11-06T18:02:59.726Z,11.00
2022-11-06T18:05:26.482Z,11.00
2022-11-06T18:07:53.247Z,11.10
2022-11-06T18:10:20.224Z,11.10
2022-11-06T18:12:51.586Z,11.10
2022-11-06T18:15:18.376Z,11.20
2022-11-06T18:17:45.155Z,11.20
2022-11-06T18:20:11.950Z,11.20
2022-11-06T18:22:38.672Z,11.30
2022-11-06T18:25:05.566Z,11.30
2022-11-06T18:27:32.329Z,11.20
2022-11-06T18:29:59.212Z,11.20
2022-11-06T18:32:26.380Z,11.20
2022-11-06T18:34:53.097Z,11.20
2022-11-06T18:37:19.792Z,11.20
2022-11-06T18:39:46.493Z,11.20
2022-11-06T18:42:13.387Z,11.10
2022-11-06T18:44:41.522Z,11.10
2022-11-06T18:47:09.107Z,10.90
2022-11-06T18:49:36.371Z,10.70
2022-11-06T18:52:03.360Z,10.60
2022-11-06T18:54:30.109Z,10.50
2022-11-06T18:56:56.886Z,10.30
2022-11-06T18:59:24.348Z,10.30
2022-11-06T19:01:53.885Z,10.20
2022-11-06T19:04:22.066Z,10.20
2022-11-06T19:06:50.500Z,10.10
2022-11-06T19:09:17.249Z,10.10
2022-11-06T19:11:44.183Z,10.00
2022-11-06T19:14:12.652Z,10.00
2022-11-06T19:16:39.390Z,10.00
2022-11-06T19:19:06.820Z,10.00
2022-11-06T19:21:34.341Z,9.90
2022-11-06T19:24:04.634Z,10.00
2022-11-06T19:26:33.681Z,10.00
2022-11-06T19:29:01.082Z,9.90
2022-11-06T19:31:31.985Z,9.90
2022-11-06T19:33:59.415Z,9.90
2022-11-06T19:36:26.834Z,9.80
2022-11-06T19:38:53.843Z,9.70
2022-11-06T19:41:20.945Z,9.60
2022-11-06T19:43:47.878Z,9.60
2022-11-06T19:46:23.849Z,9.50
2022-11-06T19:49:01.926Z,9.50
2022-11-06T19:51:28.802Z,9.50
2022-11-06T19:53:55.594Z,9.50
2022-11-06T19:56:22.539Z,9.50
2022-11-06T19:58:50.683Z,9.50
2022-11-06T20:01:27.896Z,9.40
2022-11-06T20:03:55.149Z,9.40
2022-11-06T20:06:22.876Z,9.30
2022-11-06T20:08:50.457Z,9.30
2022-11-06T20:11:19.288Z,9.30
2022-11-06T20:13:46.694Z,9.30
2022-11-06T20:16:18.349Z,9.30
2022-11-06T20:18:50.316Z,9.20
2022-11-06T20:21:17.150Z,9.20
2022-11-06T20:23:47.322Z,9.20
2022-11-06T20:26:14.897Z,9.30
2022-11-06T20:28:41.796Z,9.40
2022-11-06T20:31:09.441Z,9.30
2022-11-06T20:33:36.588Z,9.40
2022-11-06T20:36:10.987Z,9.40
2022-11-06T20:38:37.953Z,9.40
2022-11-06T20:41:06.881Z,9.40
2022-11-06T20:43:33.874Z,9.40
2022-11-06T20:46:01.447Z,9.40
2022-11-06T20:48:28.629Z,9.40
2022-11-06T20:51:05.272Z,9.50
2022-11-06T20:53:32.553Z,9.40
2022-11-06T20:56:02.465Z,9.40
2022-11-06T20:58:29.841Z,9.40
2022-11-06T21:01:00.527Z,9.50
2022-11-06T21:03:27.909Z,9.50
2022-11-06T21:05:59.245Z,9.50
2022-11-06T21:08:26.076Z,9.50
2022-11-06T21:10:54.144Z,9.50
2022-11-06T21:13:20.942Z,9.50
2022-11-06T21:15:48.218Z,9.60
2022-11-06T21:18:17.845Z,9.60
2022-11-06T21:20:47.904Z,9.80
2022-11-06T21:23:14.829Z,9.70
2022-11-06T21:25:45.513Z,9.90
2022-11-06T21:28:13.836Z,9.90
2022-11-06T21:30:42.494Z,9.90
2022-11-06T21:33:09.305Z,9.90
2022-11-06T21:35:36.035Z,10.00
2022-11-06T21:38:13.329Z,10.00
2022-11-06T21:40:40.692Z,10.10
2022-11-06T21:43:08.010Z,10.10
2022-11-06T21:45:34.834Z,10.20
2022-11-06T21:48:01.652Z,10.20
2022-11-06T21:50:30.257Z,10.20
2022-11-06T21:53:18.222Z,10.20
2022-11-06T21:56:00.310Z,10.30
2022-11-06T21:58:27.129Z,10.30
2022-11-06T22:00:57.972Z,10.30
2022-11-06T22:03:24.792Z,10.20
2022-11-06T22:05:53.870Z,10.20
2022-11-06T22:08:20.773Z,10.30
2022-11-06T22:10:50.218Z,10.30
2022-11-06T22:13:17.090Z,10.30
2022-11-06T22:15:43.900Z,10.30
2022-11-06T22:18:10.924Z,10.50
2022-11-06T22:20:37.807Z,10.30
2022-11-06T22:23:04.709Z,10.30
2022-11-06T22:25:31.538Z,10.30
2022-11-06T22:27:58.373Z,10.30
2022-11-06T22:30:25.153Z,10.30
2022-11-06T22:32:51.913Z,10.40
2022-11-06T22:35:18.736Z,10.40
2022-11-06T22:37:45.655Z,10.40
2022-11-06T22:40:12.607Z,10.40
2022-11-06T22:42:39.371Z,10.50
2022-11-06T22:45:06.670Z,10.50
2022-11-06T22:47:33.359Z,10.50
2022-11-06T22:50:00.088Z,10.50
2022-11-06T22:52:26.751Z,10.50
2022-11-06T22:54:53.386Z,10.50
2022-11-06T22:57:20.240Z,10.50
2022-11-06T22:59:46.992Z,10.50
2022-11-06T23:02:13.841Z,10.50
2022-11-06T23:04:40.551Z,10.50
2022-11-06T23:07:07.441Z,10.60
2022-11-06T23:09:34.456Z,10.60
2022-11-06T23:12:01.109Z,10.60
2022-11-06T23:14:28.515Z,10.60
2022-11-06T23:16:57.833Z,10.60
2022-11-06T23:19:24.901Z,10.60
2022-11-06T23:21:52.617Z,10.70
2022-11-06T23:24:19.339Z,10.60
2022-11-06T23:26:46.156Z,10.70
2022-11-06T23:29:12.848Z,10.60
2022-11-06T23:31:41.175Z,10.70
2022-11-06T23:34:08.193Z,10.70
2022-11-06T23:36:35.635Z,10.70
2022-11-06T23:39:02.516Z,10.70
2022-11-06T23:41:45.891Z,10.80
2022-11-06T23:44:32.116Z,10.80
2022-11-06T23:46:58.921Z,10.80
2022-11-06T23:49:26.134Z,10.80
2022-11-06T23:51:52.881Z,10.90
2022-11-06T23:54:19.677Z,10.80
2022-11-06T23:56:46.382Z,10.80
2022-11-06T23:59:13.152Z,10.80
